createdAt,value
2018-06-19T00:01:16.877Z,2.97
2018-06-19T00:03:45.240Z,2.90
2018-06-19T00:06:13.854Z,3.00
2018-06-19T00:08:42.129Z,3.40
2018-06-19T00:11:11.086Z,3.50
2018-06-19T00:13:39.377Z,3.30
2018-06-19T00:16:07.593Z,3.17
2018-06-19T00:18:39.128Z,3.20
2018-06-19T00:21:41.933Z,3.60
2018-06-19T00:24:10.063Z,2.70
2018-06-19T00:26:38.408Z,3.67
2018-06-19T00:29:06.554Z,3.77
2018-06-19T00:31:34.739Z,3.00
2018-06-19T00:34:02.901Z,3.47
2018-06-19T00:36:31.031Z,3.43
2018-06-19T00:38:59.111Z,3.00
2018-06-19T00:41:27.258Z,3.67
2018-06-19T00:43:55.356Z,3.37
2018-06-19T00:46:25.966Z,3.83
2018-06-19T00:48:54.164Z,3.50
2018-06-19T00:51:22.319Z,3.60
2018-06-19T00:53:50.553Z,3.80
2018-06-19T00:56:30.429Z,3.63
2018-06-19T00:58:58.539Z,4.03
2018-06-19T01:01:26.814Z,3.90
2018-06-19T01:03:54.974Z,3.67
2018-06-19T01:06:24.639Z,3.73
2018-06-19T01:08:52.798Z,3.77
2018-06-19T01:11:20.956Z,3.10
2018-06-19T01:13:49.331Z,3.80
2018-06-19T01:16:17.536Z,3.77
2018-06-19T01:18:45.653Z,3.73
2018-06-19T01:21:14.006Z,3.43
2018-06-19T01:23:42.171Z,3.73
2018-06-19T01:26:10.336Z,4.23
2018-06-19T01:28:39.084Z,3.80
2018-06-19T01:31:07.381Z,3.67
2018-06-19T01:33:35.536Z,4.10
2018-06-19T01:36:03.661Z,4.00
2018-06-19T01:38:31.822Z,4.10
2018-06-19T01:41:00.017Z,4.20
2018-06-19T01:43:28.210Z,3.97
2018-06-19T01:45:56.438Z,3.83
2018-06-19T01:48:24.717Z,4.37
2018-06-19T01:50:52.914Z,4.13
2018-06-19T01:53:21.190Z,4.13
2018-06-19T01:55:49.350Z,3.90
2018-06-19T01:58:17.711Z,4.10
2018-06-19T02:00:45.889Z,4.30
2018-06-19T02:03:14.278Z,3.80
2018-06-19T02:05:42.412Z,4.60
2018-06-19T02:08:10.896Z,4.33
2018-06-19T02:10:39.065Z,4.60
2018-06-19T02:13:07.270Z,3.63
2018-06-19T02:15:35.435Z,4.57
2018-06-19T02:18:03.554Z,4.40
2018-06-19T02:20:31.798Z,3.87
2018-06-19T02:22:59.980Z,3.60
2018-06-19T02:25:28.112Z,4.13
2018-06-19T02:27:56.279Z,3.80
2018-06-19T02:30:24.464Z,4.00
2018-06-19T02:32:52.666Z,4.57
2018-06-19T02:35:20.674Z,4.23
2018-06-19T02:37:48.938Z,3.90
2018-06-19T02:40:17.090Z,4.90
2018-06-19T02:42:45.222Z,3.63
2018-06-19T02:45:13.610Z,5.07
2018-06-19T02:47:41.764Z,4.00
2018-06-19T02:50:09.917Z,4.27
2018-06-19T02:52:38.056Z,4.43
2018-06-19T02:55:06.284Z,4.20
2018-06-19T02:57:34.607Z,4.03
2018-06-19T03:00:02.865Z,4.33
2018-06-19T03:02:31.012Z,4.87
2018-06-19T03:04:59.292Z,4.30
2018-06-19T03:07:27.595Z,4.80
2018-06-19T03:09:55.865Z,4.43
2018-06-19T03:12:24.081Z,4.60
2018-06-19T03:14:52.319Z,4.20
2018-06-19T03:17:20.557Z,3.97
2018-06-19T03:19:48.733Z,4.33
2018-06-19T03:22:16.979Z,4.53
2018-06-19T03:24:45.226Z,4.63
2018-06-19T03:27:13.446Z,4.80
2018-06-19T03:29:41.649Z,4.37
2018-06-19T03:32:09.867Z,4.83
2018-06-19T03:34:38.128Z,4.87
2018-06-19T03:37:06.281Z,5.40
2018-06-19T03:39:34.455Z,5.40
2018-06-19T03:42:02.585Z,5.93
2018-06-19T03:44:30.809Z,5.63
2018-06-19T03:46:58.969Z,6.07
2018-06-19T03:49:26.935Z,5.90
2018-06-19T03:51:55.093Z,5.70
2018-06-19T03:54:23.909Z,5.80
2018-06-19T03:56:52.084Z,5.73
2018-06-19T03:59:20.187Z,6.43
2018-06-19T04:01:48.389Z,4.73
2018-06-19T04:04:16.549Z,6.30
2018-06-19T04:06:44.673Z,5.90
2018-06-19T04:09:12.788Z,4.90
2018-06-19T04:11:41.020Z,5.93
2018-06-19T04:14:09.193Z,6.03
2018-06-19T04:16:37.350Z,6.20
2018-06-19T04:19:05.548Z,7.10
2018-06-19T04:21:33.673Z,6.00
2018-06-19T04:24:02.252Z,6.80
2018-06-19T04:26:30.372Z,6.67
2018-06-19T04:28:58.677Z,6.03
2018-06-19T04:31:26.811Z,6.40
2018-06-19T04:33:54.969Z,5.30
2018-06-19T04:36:23.090Z,6.43
2018-06-19T04:38:51.244Z,6.20
2018-06-19T04:41:19.346Z,7.07
2018-06-19T04:43:47.536Z,6.20
2018-06-19T04:46:15.815Z,5.50
2018-06-19T04:48:43.958Z,5.33
2018-06-19T04:51:12.268Z,6.03
2018-06-19T04:53:40.552Z,5.90
2018-06-19T04:56:08.784Z,5.97
2018-06-19T04:58:36.930Z,5.73
2018-06-19T05:01:05.370Z,5.80
2018-06-19T05:03:33.546Z,6.30
2018-06-19T05:06:01.739Z,5.80
2018-06-19T05:08:29.915Z,5.83
2018-06-19T05:10:58.120Z,5.67
2018-06-19T05:13:26.316Z,5.90
2018-06-19T05:15:54.582Z,5.90
2018-06-19T05:18:22.866Z,6.27
2018-06-19T05:20:51.193Z,6.70
2018-06-19T05:23:19.351Z,5.80
2018-06-19T05:25:47.711Z,6.90
2018-06-19T05:28:15.876Z,6.97
2018-06-19T05:30:44.055Z,5.70
2018-06-19T05:33:12.372Z,6.80
2018-06-19T05:35:40.579Z,6.90
2018-06-19T05:38:08.702Z,6.70
2018-06-19T05:40:36.930Z,7.10
2018-06-19T05:43:05.064Z,7.97
2018-06-19T05:45:33.318Z,6.80
2018-06-19T05:48:01.481Z,8.40
2018-06-19T05:50:29.649Z,7.70
2018-06-19T05:52:57.947Z,8.30
2018-06-19T05:55:26.314Z,8.30
2018-06-19T05:57:54.699Z,8.70
2018-06-19T06:00:22.914Z,8.70
2018-06-19T06:02:51.323Z,9.60
2018-06-19T06:05:19.487Z,9.77
2018-06-19T06:07:47.858Z,9.73
2018-06-19T06:10:16.075Z,10.03
2018-06-19T06:12:45.320Z,10.73
2018-06-19T06:15:13.502Z,11.17
2018-06-19T06:17:41.767Z,9.00
2018-06-19T06:20:09.940Z,8.77
2018-06-19T06:22:38.111Z,10.80
2018-06-19T06:25:06.467Z,10.87
2018-06-19T06:27:34.634Z,10.57
2018-06-19T06:30:02.779Z,10.57
2018-06-19T06:32:31.068Z,10.90
2018-06-19T06:34:59.240Z,10.70
2018-06-19T06:37:27.420Z,9.73
2018-06-19T06:39:55.854Z,9.10
2018-06-19T06:42:24.108Z,11.87
2018-06-19T06:44:52.431Z,8.90
2018-06-19T06:47:20.626Z,9.27
2018-06-19T06:49:48.773Z,9.00
2018-06-19T06:52:17.180Z,9.30
2018-06-19T06:54:46.972Z,9.33
2018-06-19T06:57:15.143Z,9.00
2018-06-19T06:59:43.272Z,9.60
2018-06-19T07:02:11.542Z,7.30
2018-06-19T07:04:39.726Z,10.03
2018-06-19T07:07:08.867Z,10.20
2018-06-19T07:09:37.100Z,9.80
2018-06-19T07:12:05.609Z,10.53
2018-06-19T07:14:33.767Z,7.80
2018-06-19T07:17:01.944Z,9.07
2018-06-19T07:19:30.189Z,9.50
2018-06-19T07:21:58.324Z,9.60
2018-06-19T07:24:26.520Z,10.30
2018-06-19T07:26:54.717Z,9.00
2018-06-19T07:29:22.921Z,9.70
2018-06-19T07:31:51.032Z,10.27
2018-06-19T07:34:20.946Z,8.67
2018-06-19T07:36:49.389Z,8.33
2018-06-19T07:39:17.583Z,10.37
2018-06-19T07:41:45.837Z,9.63
2018-06-19T07:44:14.081Z,9.40
2018-06-19T07:46:42.289Z,10.53
2018-06-19T07:49:10.649Z,8.90
2018-06-19T07:51:38.616Z,8.57
2018-06-19T07:54:06.876Z,8.07
2018-06-19T07:56:35.110Z,8.10
2018-06-19T07:59:03.263Z,8.47
2018-06-19T08:01:31.419Z,7.73
2018-06-19T08:03:59.597Z,8.13
2018-06-19T08:06:27.825Z,8.03
2018-06-19T08:09:02.755Z,8.07
2018-06-19T08:11:30.955Z,7.97
2018-06-19T08:13:59.103Z,7.87
2018-06-19T08:16:27.285Z,9.17
2018-06-19T08:18:55.765Z,9.67
2018-06-19T08:21:23.905Z,8.40
2018-06-19T08:23:52.067Z,7.43
2018-06-19T08:26:20.342Z,7.70
2018-06-19T08:28:48.514Z,8.63
2018-06-19T08:31:16.806Z,8.27
2018-06-19T08:33:45.090Z,8.47
2018-06-19T08:36:13.379Z,8.03
2018-06-19T08:38:41.510Z,7.50
2018-06-19T08:41:09.800Z,6.50
2018-06-19T08:43:37.988Z,6.97
2018-06-19T08:46:07.137Z,7.60
2018-06-19T08:48:35.287Z,5.63
2018-06-19T08:51:03.634Z,6.83
2018-06-19T08:53:31.846Z,6.53
2018-06-19T08:56:00.080Z,5.93
2018-06-19T08:58:28.356Z,6.63
2018-06-19T09:00:56.672Z,5.87
2018-06-19T09:03:24.969Z,5.50
2018-06-19T09:05:53.265Z,6.33
2018-06-19T09:08:21.430Z,6.87
2018-06-19T09:10:49.678Z,5.73
2018-06-19T09:13:18.077Z,5.53
2018-06-19T09:15:46.258Z,5.80
2018-06-19T09:18:14.566Z,5.63
2018-06-19T09:20:42.694Z,5.00
2018-06-19T09:23:11.950Z,5.70
2018-06-19T09:25:40.103Z,5.50
2018-06-19T09:28:08.292Z,4.80
2018-06-19T09:30:36.524Z,4.67
2018-06-19T09:33:05.039Z,4.83
2018-06-19T09:35:33.252Z,5.00
2018-06-19T09:38:01.373Z,5.00
2018-06-19T09:40:29.687Z,5.03
2018-06-19T09:42:57.866Z,5.07
2018-06-19T09:45:26.110Z,5.00
2018-06-19T09:47:55.044Z,4.83
2018-06-19T09:50:23.276Z,4.60
2018-06-19T09:52:51.862Z,4.23
2018-06-19T09:55:19.996Z,4.43
2018-06-19T09:57:48.157Z,4.00
2018-06-19T10:00:20.571Z,4.23
2018-06-19T10:02:48.725Z,4.20
2018-06-19T10:05:16.967Z,4.00
2018-06-19T10:07:45.155Z,5.13
2018-06-19T10:10:13.291Z,4.37
2018-06-19T10:12:41.443Z,3.90
2018-06-19T10:15:09.733Z,3.10
2018-06-19T10:17:37.890Z,3.50
2018-06-19T10:20:06.059Z,4.10
2018-06-19T10:22:34.881Z,4.33
2018-06-19T10:25:03.282Z,3.43
2018-06-19T10:27:31.603Z,3.93
2018-06-19T10:29:59.782Z,3.47
2018-06-19T10:32:27.959Z,3.30
2018-06-19T10:34:56.227Z,3.30
2018-06-19T10:37:24.374Z,3.33
2018-06-19T10:39:52.937Z,3.17
2018-06-19T10:42:21.149Z,3.20
2018-06-19T10:44:49.791Z,3.10
2018-06-19T10:47:18.022Z,3.00
2018-06-19T10:49:46.476Z,3.43
2018-06-19T10:52:14.691Z,3.60
2018-06-19T10:54:42.836Z,3.03
2018-06-19T10:57:11.039Z,3.67
2018-06-19T10:59:39.254Z,3.60
2018-06-19T11:02:07.525Z,3.50
2018-06-19T11:04:35.739Z,3.60
2018-06-19T11:07:04.106Z,3.10
2018-06-19T11:09:32.318Z,3.70
2018-06-19T11:12:00.572Z,2.90
2018-06-19T11:14:28.857Z,2.80
2018-06-19T11:16:57.071Z,2.43
2018-06-19T11:19:25.278Z,2.90
2018-06-19T11:21:53.764Z,2.70
2018-06-19T11:24:28.592Z,3.27
2018-06-19T11:26:56.768Z,3.07
2018-06-19T11:29:24.997Z,2.90
2018-06-19T11:31:53.355Z,2.67
2018-06-19T11:34:21.557Z,3.20
2018-06-19T11:36:49.979Z,2.60
2018-06-19T11:39:18.835Z,2.50
2018-06-19T11:41:47.009Z,3.27
2018-06-19T11:44:15.477Z,2.70
2018-06-19T11:46:43.698Z,2.63
2018-06-19T11:49:12.055Z,2.70
2018-06-19T11:51:40.398Z,2.83
2018-06-19T11:54:08.664Z,3.10
2018-06-19T11:56:37.060Z,3.27
2018-06-19T11:59:05.272Z,3.60
2018-06-19T12:01:33.648Z,2.80
2018-06-19T12:04:01.891Z,3.00
2018-06-19T12:06:30.068Z,3.00
2018-06-19T12:08:58.282Z,2.77
2018-06-19T12:11:26.469Z,2.93
2018-06-19T12:13:54.948Z,3.10
2018-06-19T12:16:23.369Z,2.77
2018-06-19T12:18:51.525Z,2.93
2018-06-19T12:21:20.353Z,3.30
2018-06-19T12:23:48.654Z,2.77
2018-06-19T12:26:16.914Z,2.80
2018-06-19T12:28:45.103Z,2.60
2018-06-19T12:31:13.423Z,3.00
2018-06-19T12:33:41.624Z,3.20
2018-06-19T12:36:09.796Z,3.43
2018-06-19T12:38:38.375Z,2.90
2018-06-19T12:41:06.767Z,2.80
2018-06-19T12:43:34.885Z,2.33
2018-06-19T12:46:03.105Z,3.20
2018-06-19T12:48:31.261Z,3.10
2018-06-19T12:52:09.735Z,3.20
2018-06-19T12:54:50.625Z,2.77
2018-06-19T12:57:18.808Z,3.30
2018-06-19T12:59:47.004Z,3.57
2018-06-19T13:02:15.413Z,3.30
2018-06-19T13:04:55.208Z,3.23
2018-06-19T13:07:23.440Z,3.07
2018-06-19T13:09:51.683Z,3.13
2018-06-19T13:12:31.527Z,3.13
2018-06-19T13:14:59.741Z,3.37
2018-06-19T13:17:39.647Z,2.70
2018-06-19T13:20:19.311Z,3.70
2018-06-19T13:22:47.437Z,3.30
2018-06-19T13:25:15.705Z,3.23
2018-06-19T13:27:43.869Z,3.30
2018-06-19T13:30:23.751Z,3.87
2018-06-19T13:32:51.926Z,3.80
2018-06-19T13:35:20.099Z,3.63
2018-06-19T13:37:48.247Z,3.50
2018-06-19T13:41:26.666Z,3.07
2018-06-19T13:44:08.933Z,3.87
2018-06-19T13:46:37.171Z,3.90
2018-06-19T13:49:05.393Z,3.47
2018-06-19T13:51:33.609Z,4.33
2018-06-19T13:54:01.821Z,3.30
2018-06-19T13:57:45.962Z,3.67
2018-06-19T14:00:16.168Z,3.60
2018-06-19T14:02:44.323Z,3.33
2018-06-19T14:05:13.358Z,3.30
2018-06-19T14:08:07.239Z,3.27
2018-06-19T14:10:51.408Z,2.90
2018-06-19T14:13:19.647Z,3.50
2018-06-19T14:15:50.045Z,3.07
2018-06-19T14:18:20.407Z,3.30
2018-06-19T14:20:48.706Z,3.00
2018-06-19T14:23:17.089Z,2.70
2018-06-19T14:25:45.318Z,3.17
2018-06-19T14:28:13.673Z,3.10
2018-06-19T14:30:41.894Z,3.17
2018-06-19T14:33:10.066Z,3.30
2018-06-19T14:35:38.742Z,2.90
2018-06-19T14:38:07.019Z,2.90
2018-06-19T14:40:35.396Z,3.10
2018-06-19T14:43:03.607Z,2.77
2018-06-19T14:45:31.943Z,3.10
2018-06-19T14:48:00.128Z,2.83
2018-06-19T14:50:28.442Z,2.50
2018-06-19T14:52:56.651Z,2.40
2018-06-19T14:55:25.241Z,2.67
2018-06-19T14:57:53.560Z,3.10
2018-06-19T15:00:21.792Z,2.90
2018-06-19T15:02:50.171Z,3.70
2018-06-19T15:05:18.407Z,3.47
2018-06-19T15:07:51.538Z,3.40
2018-06-19T15:10:19.876Z,4.13
2018-06-19T15:12:47.890Z,3.40
2018-06-19T15:15:16.269Z,3.23
2018-06-19T15:17:44.457Z,3.37
2018-06-19T15:20:12.807Z,3.10
2018-06-19T15:22:40.989Z,3.67
2018-06-19T15:25:09.104Z,3.87
2018-06-19T15:27:37.517Z,3.70
2018-06-19T15:30:05.899Z,4.20
2018-06-19T15:32:34.612Z,3.67
2018-06-19T15:35:02.830Z,3.50
2018-06-19T15:37:31.039Z,4.50
2018-06-19T15:39:59.296Z,3.77
2018-06-19T15:42:27.857Z,3.63
2018-06-19T15:44:56.127Z,4.10
2018-06-19T15:47:24.077Z,3.70
2018-06-19T15:49:52.506Z,3.80
2018-06-19T15:52:20.732Z,4.30
2018-06-19T15:54:48.938Z,4.27
2018-06-19T15:57:17.187Z,3.90
2018-06-19T15:59:45.353Z,4.10
2018-06-19T16:02:13.748Z,4.77
2018-06-19T16:04:41.924Z,5.17
2018-06-19T16:07:10.265Z,3.90
2018-06-19T16:09:38.453Z,3.90
2018-06-19T16:12:06.800Z,4.10
2018-06-19T16:14:34.891Z,3.60
2018-06-19T16:17:03.124Z,3.27
2018-06-19T16:19:31.393Z,3.63
2018-06-19T16:21:59.858Z,3.20
2018-06-19T16:24:28.124Z,3.20
2018-06-19T16:26:56.328Z,4.00
2018-06-19T16:29:24.500Z,3.43
2018-06-19T16:31:52.556Z,3.80
2018-06-19T16:34:20.764Z,3.80
2018-06-19T16:36:48.928Z,3.47
2018-06-19T16:39:17.245Z,2.70
2018-06-19T16:41:45.441Z,4.13
2018-06-19T16:44:14.181Z,2.90
2018-06-19T16:46:42.353Z,2.27
2018-06-19T16:49:10.696Z,2.10
2018-06-19T16:51:38.923Z,2.30
2018-06-19T16:54:06.902Z,2.00
2018-06-19T16:56:35.380Z,2.20
2018-06-19T16:59:03.596Z,2.20
2018-06-19T17:01:31.907Z,2.17
2018-06-19T17:04:00.191Z,2.20
2018-06-19T17:06:28.442Z,1.77
2018-06-19T17:08:56.676Z,5.00
2018-06-19T17:11:25.012Z,3.10
2018-06-19T17:13:53.400Z,2.50
2018-06-19T17:16:21.634Z,2.60
2018-06-19T17:21:24.694Z,10.43
2018-06-19T17:23:52.940Z,6.07
2018-06-19T17:26:21.266Z,2.20
2018-06-19T17:28:49.410Z,2.33
2018-06-19T17:31:17.818Z,3.37
2018-06-19T17:33:46.505Z,2.30
2018-06-19T17:36:14.867Z,2.80
2018-06-19T17:38:43.094Z,4.03
2018-06-19T17:41:11.337Z,3.30
2018-06-19T17:43:39.394Z,3.60
2018-06-19T17:46:07.651Z,2.50
2018-06-19T17:48:35.930Z,2.80
2018-06-19T17:51:04.367Z,3.90
2018-06-19T17:53:32.828Z,3.40
2018-06-19T17:56:01.115Z,3.57
2018-06-19T17:58:29.424Z,3.47
2018-06-19T18:00:57.591Z,4.40
2018-06-19T18:03:25.908Z,3.30
2018-06-19T18:05:54.105Z,3.30
2018-06-19T18:08:22.477Z,2.80
2018-06-19T18:10:50.847Z,3.40
2018-06-19T18:13:19.061Z,3.10
2018-06-19T18:15:47.408Z,7.73
2018-06-19T18:18:15.751Z,4.87
2018-06-19T18:20:43.950Z,3.40
2018-06-19T18:23:12.245Z,4.20
2018-06-19T18:25:40.463Z,5.47
2018-06-19T18:28:08.622Z,6.97
2018-06-19T18:30:36.802Z,5.70
2018-06-19T18:33:04.981Z,3.60
2018-06-19T18:35:33.246Z,3.80
2018-06-19T18:38:01.863Z,4.20
2018-06-19T18:40:30.103Z,3.77
2018-06-19T18:42:58.365Z,3.20
2018-06-19T18:45:26.543Z,3.50
2018-06-19T18:47:54.894Z,3.83
2018-06-19T18:50:23.219Z,2.70
2018-06-19T18:52:51.279Z,2.67
2018-06-19T18:55:19.716Z,3.07
2018-06-19T18:57:48.219Z,2.70
2018-06-19T19:00:17.114Z,2.90
2018-06-19T19:02:45.592Z,3.03
2018-06-19T19:05:14.896Z,2.60
2018-06-19T19:07:43.207Z,2.77
2018-06-19T19:10:17.340Z,2.80
2018-06-19T19:12:45.937Z,2.50
2018-06-19T19:15:19.743Z,2.97
2018-06-19T19:17:53.719Z,3.13
2018-06-19T19:20:22.066Z,3.00
2018-06-19T19:22:50.391Z,9.53
2018-06-19T19:25:18.701Z,2.93
2018-06-19T19:27:52.595Z,2.83
2018-06-19T19:30:21.130Z,2.70
2018-06-19T19:32:49.439Z,2.47
2018-06-19T19:35:18.334Z,2.70
2018-06-19T19:37:52.070Z,3.30
2018-06-19T19:40:20.410Z,2.53
2018-06-19T19:42:49.004Z,2.60
2018-06-19T19:45:17.493Z,2.90
2018-06-19T19:47:51.286Z,3.00
2018-06-19T19:50:19.717Z,3.20
2018-06-19T19:52:48.252Z,2.77
2018-06-19T19:55:16.667Z,3.03
2018-06-19T19:57:50.113Z,3.37
2018-06-19T20:00:25.136Z,3.73
2018-06-19T20:02:53.968Z,3.47
2018-06-19T20:05:22.557Z,3.50
2018-06-19T20:07:50.984Z,3.30
2018-06-19T20:10:19.935Z,2.57
2018-06-19T20:12:48.524Z,3.27
2018-06-19T20:15:17.639Z,3.47
2018-06-19T20:17:46.040Z,3.67
2018-06-19T20:20:15.183Z,3.13
2018-06-19T20:22:43.900Z,3.53
2018-06-19T20:25:12.682Z,4.60
2018-06-19T20:27:40.988Z,4.40
2018-06-19T20:30:10.058Z,4.40
2018-06-19T20:32:38.921Z,3.50
2018-06-19T20:35:07.252Z,3.37
2018-06-19T20:37:35.626Z,4.13
2018-06-19T20:40:04.002Z,3.60
2018-06-19T20:42:32.294Z,3.10
2018-06-19T20:45:00.748Z,2.73
2018-06-19T20:47:29.004Z,3.57
2018-06-19T20:49:57.248Z,3.30
2018-06-19T20:52:25.460Z,3.67
2018-06-19T20:54:53.806Z,3.33
2018-06-19T20:57:22.097Z,3.30
2018-06-19T20:59:50.395Z,2.80
2018-06-19T21:02:19.101Z,4.80
2018-06-19T21:04:47.337Z,3.50
2018-06-19T21:07:15.602Z,4.23
2018-06-19T21:09:44.276Z,3.87
2018-06-19T21:12:12.468Z,3.73
2018-06-19T21:14:41.170Z,4.30
2018-06-19T21:17:09.438Z,4.03
2018-06-19T21:19:37.592Z,3.60
2018-06-19T21:22:05.859Z,3.77
2018-06-19T21:24:34.138Z,3.40
2018-06-19T21:27:02.289Z,4.60
2018-06-19T21:29:30.757Z,4.77
2018-06-19T21:31:58.912Z,4.00
2018-06-19T21:34:27.335Z,4.87
2018-06-19T21:36:55.496Z,4.20
2018-06-19T21:39:23.608Z,4.30
2018-06-19T21:41:52.053Z,3.90
2018-06-19T21:44:20.228Z,3.30
2018-06-19T21:46:48.449Z,4.40
2018-06-19T21:49:16.742Z,3.60
2018-06-19T21:51:44.810Z,3.80
2018-06-19T21:54:13.324Z,5.10
2018-06-19T21:56:41.492Z,4.20
2018-06-19T21:59:09.722Z,4.70
2018-06-19T22:01:37.974Z,4.33
2018-06-19T22:04:05.987Z,5.73
2018-06-19T22:06:34.142Z,4.20
2018-06-19T22:09:02.315Z,4.27
2018-06-19T22:11:31.250Z,3.87
2018-06-19T22:13:59.447Z,4.33
2018-06-19T22:16:27.592Z,4.43
2018-06-19T22:18:55.795Z,4.33
2018-06-19T22:21:23.967Z,4.33
2018-06-19T22:23:52.192Z,4.67
2018-06-19T22:26:20.301Z,4.13
2018-06-19T22:28:48.644Z,4.10
2018-06-19T22:31:17.158Z,4.30
2018-06-19T22:33:46.297Z,3.47
2018-06-19T22:36:14.474Z,3.90
2018-06-19T22:38:42.748Z,3.60
2018-06-19T22:41:10.918Z,4.70
2018-06-19T22:43:39.155Z,4.20
2018-06-19T22:46:07.411Z,4.23
2018-06-19T22:48:35.632Z,3.77
2018-06-19T22:51:03.877Z,4.67
2018-06-19T22:53:32.062Z,3.90
2018-06-19T22:56:00.357Z,4.63
2018-06-19T22:58:28.560Z,4.47
2018-06-19T23:00:56.794Z,4.00
2018-06-19T23:03:25.263Z,4.00
2018-06-19T23:05:53.430Z,4.60
2018-06-19T23:08:21.584Z,3.70
2018-06-19T23:10:49.763Z,3.97
2018-06-19T23:13:18.043Z,4.23
2018-06-19T23:15:46.516Z,4.30
2018-06-19T23:18:14.723Z,4.60
2018-06-19T23:20:42.894Z,4.00
2018-06-19T23:23:11.001Z,4.33
2018-06-19T23:25:39.169Z,5.67
2018-06-19T23:28:07.304Z,7.10
2018-06-19T23:30:35.411Z,5.37
2018-06-19T23:33:03.560Z,5.10
2018-06-19T23:35:31.675Z,4.70
2018-06-19T23:37:59.896Z,4.57
2018-06-19T23:40:28.019Z,3.80
2018-06-19T23:42:56.163Z,4.43
2018-06-19T23:45:24.287Z,5.03
2018-06-19T23:47:52.710Z,4.43
2018-06-19T23:50:20.855Z,4.70
2018-06-19T23:52:49.078Z,4.47
2018-06-19T23:55:17.342Z,4.20
2018-06-19T23:57:45.916Z,5.10
